createdAt,value
2019-05-29T00:00:14.789Z,81.01
2019-05-29T00:01:19.858Z,81.01
2019-05-29T00:02:15.766Z,81.32
2019-05-29T00:03:14.756Z,81.62
2019-05-29T00:04:14.746Z,82.39
2019-05-29T00:05:14.734Z,81.83
2019-05-29T00:06:14.724Z,81.32
2019-05-29T00:07:14.729Z,81.67
2019-05-29T00:08:14.800Z,81.52
2019-05-29T00:09:14.694Z,81.46
2019-05-29T00:10:14.681Z,81.21
2019-05-29T00:11:14.668Z,81.52
2019-05-29T00:12:19.318Z,81.35
2019-05-29T00:13:15.659Z,81.05
2019-05-29T00:14:22.603Z,81.35
2019-05-29T00:15:15.622Z,81.35
2019-05-29T00:16:14.613Z,81.46
2019-05-29T00:17:14.738Z,81.87
2019-05-29T00:18:14.679Z,81.87
2019-05-29T00:19:14.667Z,82.21
2019-05-29T00:20:14.709Z,82.18
2019-05-29T00:21:14.757Z,82.18
2019-05-29T00:22:14.590Z,82.11
2019-05-29T00:23:14.716Z,82.42
2019-05-29T00:24:14.526Z,82.21
2019-05-29T00:25:14.807Z,82.73
2019-05-29T00:26:14.644Z,82.32
2019-05-29T00:27:15.607Z,82.93
2019-05-29T00:28:14.906Z,83.04
2019-05-29T00:29:14.472Z,82.93
2019-05-29T00:30:15.017Z,82.97
2019-05-29T00:31:14.462Z,82.93
2019-05-29T00:32:15.166Z,82.83
2019-05-29T00:33:14.580Z,83.04
2019-05-29T00:34:15.253Z,83.25
2019-05-29T00:35:14.455Z,82.67
2019-05-29T00:36:14.488Z,83.49
2019-05-29T00:37:14.648Z,82.97
2019-05-29T00:38:14.750Z,83.28
2019-05-29T00:39:14.807Z,83.07
2019-05-29T00:40:15.084Z,82.87
2019-05-29T00:41:15.083Z,83.59
2019-05-29T00:42:14.751Z,83.59
2019-05-29T00:43:15.503Z,83.07
2019-05-29T00:44:15.361Z,83.53
2019-05-29T00:45:15.529Z,83.49
2019-05-29T00:46:15.493Z,83.53
2019-05-29T00:47:14.281Z,83.70
2019-05-29T00:48:14.270Z,84.05
2019-05-29T00:49:14.273Z,83.53
2019-05-29T00:50:14.249Z,83.84
2019-05-29T00:51:15.092Z,84.25
2019-05-29T00:52:14.368Z,83.94
2019-05-29T00:53:14.334Z,84.14
2019-05-29T00:54:14.481Z,84.14
2019-05-29T00:55:14.679Z,83.94
2019-05-29T00:56:14.668Z,85.07
2019-05-29T00:57:15.334Z,84.87
2019-05-29T00:58:14.913Z,84.56
2019-05-29T00:59:15.105Z,84.08
2019-05-29T01:00:15.210Z,84.29
2019-05-29T01:01:15.406Z,84.29
2019-05-29T01:02:14.123Z,84.29
2019-05-29T01:03:14.116Z,84.59
2019-05-29T01:04:14.102Z,84.70
2019-05-29T01:05:14.091Z,85.11
2019-05-29T01:06:14.080Z,84.29
2019-05-29T01:07:14.218Z,84.29
2019-05-29T01:08:14.517Z,84.19
2019-05-29T01:09:14.425Z,83.87
2019-05-29T01:10:14.681Z,83.47
2019-05-29T01:11:14.706Z,83.32
2019-05-29T01:12:14.795Z,83.67
2019-05-29T01:13:15.083Z,83.36
2019-05-29T01:14:15.115Z,83.67
2019-05-29T01:15:13.984Z,83.47
2019-05-29T01:16:13.975Z,83.67
2019-05-29T01:17:13.963Z,84.08
2019-05-29T01:18:13.952Z,84.08
2019-05-29T01:19:13.958Z,84.39
2019-05-29T01:20:14.064Z,84.29
2019-05-29T01:21:13.919Z,84.29
2019-05-29T01:22:14.140Z,84.43
2019-05-29T01:23:14.185Z,84.08
2019-05-29T01:24:14.205Z,83.91
2019-05-29T01:25:14.463Z,84.74
2019-05-29T01:26:14.520Z,83.81
2019-05-29T01:27:15.080Z,84.33
2019-05-29T01:28:14.703Z,84.84
2019-05-29T01:29:14.932Z,84.74
2019-05-29T01:30:15.025Z,84.64
2019-05-29T01:31:13.821Z,84.53
2019-05-29T01:32:13.834Z,84.94
2019-05-29T01:33:17.525Z,84.74
2019-05-29T01:34:15.666Z,84.74
2019-05-29T01:35:13.824Z,84.74
2019-05-29T01:36:13.893Z,84.74
2019-05-29T01:37:13.988Z,84.47
2019-05-29T01:38:13.736Z,84.57
2019-05-29T01:39:13.724Z,84.57
2019-05-29T01:40:20.106Z,84.64
2019-05-29T01:41:15.104Z,84.88
2019-05-29T01:42:13.692Z,84.88
2019-05-29T01:43:13.692Z,84.78
2019-05-29T01:44:13.675Z,84.57
2019-05-29T01:45:13.659Z,84.78
2019-05-29T01:46:13.648Z,84.57
2019-05-29T01:47:13.636Z,84.67
2019-05-29T01:48:13.627Z,84.67
2019-05-29T01:49:13.626Z,84.67
2019-05-29T01:50:13.604Z,84.78
2019-05-29T01:51:13.595Z,84.78
2019-05-29T01:52:13.585Z,84.78
2019-05-29T01:53:13.571Z,84.78
2019-05-29T01:54:13.560Z,84.67
2019-05-29T01:55:13.559Z,84.67
2019-05-29T01:56:13.541Z,84.88
2019-05-29T01:57:13.527Z,84.61
2019-05-29T01:58:13.554Z,84.57
2019-05-29T01:59:13.508Z,84.72
2019-05-29T02:00:13.496Z,84.72
2019-05-29T02:01:13.493Z,84.57
2019-05-29T02:02:13.481Z,84.72
2019-05-29T02:03:13.461Z,85.23
2019-05-29T02:04:13.455Z,85.23
2019-05-29T02:05:13.446Z,84.72
2019-05-29T02:06:13.430Z,84.72
2019-05-29T02:07:13.431Z,85.17
2019-05-29T02:08:13.413Z,85.06
2019-05-29T02:09:13.409Z,85.27
2019-05-29T02:10:13.392Z,85.68
2019-05-29T02:11:13.375Z,85.47
2019-05-29T02:12:13.367Z,85.93
2019-05-29T02:13:13.364Z,86.13
2019-05-29T02:14:13.352Z,86.61
2019-05-29T02:15:23.916Z,86.61
2019-05-29T02:16:14.320Z,85.99
2019-05-29T02:17:13.310Z,86.51
2019-05-29T02:18:13.300Z,86.65
2019-05-29T02:19:13.305Z,86.82
2019-05-29T02:20:13.287Z,86.86
2019-05-29T02:21:13.266Z,86.76
2019-05-29T02:22:13.266Z,86.44
2019-05-29T02:23:13.245Z,86.86
2019-05-29T02:24:13.234Z,86.86
2019-05-29T02:25:15.960Z,87.48
2019-05-29T02:26:13.219Z,87.37
2019-05-29T02:27:13.203Z,87.31
2019-05-29T02:28:13.189Z,87.37
2019-05-29T02:29:13.179Z,87.37
2019-05-29T02:30:13.169Z,86.96
2019-05-29T02:31:13.168Z,87.48
2019-05-29T02:32:13.151Z,87.48
2019-05-29T02:33:13.139Z,86.96
2019-05-29T02:34:13.125Z,87.17
2019-05-29T02:35:13.114Z,87.31
2019-05-29T02:36:13.113Z,87.27
2019-05-29T02:37:13.101Z,87.37
2019-05-29T02:38:13.085Z,86.79
2019-05-29T02:39:13.074Z,87.10
2019-05-29T02:40:13.059Z,86.96
2019-05-29T02:41:13.049Z,86.76
2019-05-29T02:42:13.038Z,86.55
2019-05-29T02:43:13.041Z,86.76
2019-05-29T02:44:13.019Z,85.83
2019-05-29T02:45:13.007Z,85.58
2019-05-29T02:46:12.996Z,85.62
2019-05-29T02:47:12.984Z,85.52
2019-05-29T02:48:12.973Z,85.00
2019-05-29T02:49:12.973Z,85.72
2019-05-29T02:50:12.957Z,85.41
2019-05-29T02:51:12.941Z,85.62
2019-05-29T02:52:12.934Z,85.83
2019-05-29T02:53:12.922Z,86.13
2019-05-29T02:54:12.911Z,85.93
2019-05-29T02:55:12.912Z,86.49
2019-05-29T02:56:12.892Z,86.49
2019-05-29T02:57:12.880Z,86.79
2019-05-29T02:58:12.869Z,86.79
2019-05-29T02:59:12.858Z,87.00
2019-05-29T03:00:12.850Z,86.59
2019-05-29T03:01:12.847Z,86.59
2019-05-29T03:02:12.828Z,86.49
2019-05-29T03:03:12.816Z,86.69
2019-05-29T03:04:12.806Z,87.00
2019-05-29T03:05:12.795Z,86.59
2019-05-29T03:06:12.784Z,86.90
2019-05-29T03:07:12.786Z,85.86
2019-05-29T03:08:12.763Z,86.79
2019-05-29T03:09:12.755Z,86.59
2019-05-29T03:10:12.745Z,87.10
2019-05-29T03:11:12.733Z,87.10
2019-05-29T03:12:12.726Z,86.90
2019-05-29T03:13:12.730Z,86.90
2019-05-29T03:14:12.702Z,86.79
2019-05-29T03:15:12.690Z,86.69
2019-05-29T03:16:13.317Z,86.90
2019-05-29T03:17:12.677Z,86.79
2019-05-29T03:18:12.657Z,86.59
2019-05-29T03:19:12.660Z,86.90
2019-05-29T03:20:12.637Z,86.59
2019-05-29T03:21:12.629Z,86.18
2019-05-29T03:22:12.624Z,85.86
2019-05-29T03:23:12.605Z,85.86
2019-05-29T03:24:12.597Z,86.07
2019-05-29T03:25:12.601Z,86.18
2019-05-29T03:26:12.575Z,86.18
2019-05-29T03:27:12.564Z,86.07
2019-05-29T03:28:12.560Z,86.18
2019-05-29T03:29:12.545Z,86.18
2019-05-29T03:30:12.537Z,86.90
2019-05-29T03:31:12.531Z,86.90
2019-05-29T03:32:14.497Z,86.69
2019-05-29T03:33:12.501Z,86.49
2019-05-29T03:34:12.491Z,86.52
2019-05-29T03:35:12.485Z,86.63
2019-05-29T03:36:12.470Z,86.83
2019-05-29T03:37:12.468Z,87.04
2019-05-29T03:38:12.450Z,86.94
2019-05-29T03:39:12.439Z,87.15
2019-05-29T03:40:12.452Z,87.04
2019-05-29T03:41:12.418Z,87.56
2019-05-29T03:42:12.406Z,87.56
2019-05-29T03:43:12.406Z,88.18
2019-05-29T03:44:12.395Z,87.41
2019-05-29T03:45:12.377Z,87.10
2019-05-29T03:46:29.103Z,86.69
2019-05-29T03:47:13.354Z,86.73
2019-05-29T03:48:12.350Z,86.59
2019-05-29T03:49:12.376Z,86.94
2019-05-29T03:50:15.654Z,86.07
2019-05-29T03:51:12.322Z,86.79
2019-05-29T03:52:12.302Z,86.90
2019-05-29T03:53:12.291Z,86.49
2019-05-29T03:54:12.279Z,86.59
2019-05-29T03:55:12.279Z,86.18
2019-05-29T03:56:12.274Z,85.86
2019-05-29T03:57:12.248Z,85.72
2019-05-29T03:58:12.236Z,85.83
2019-05-29T03:59:12.223Z,85.24
2019-05-29T04:00:12.213Z,85.31
2019-05-29T04:01:12.228Z,85.21
2019-05-29T04:02:12.191Z,85.10
2019-05-29T04:03:12.181Z,84.86
2019-05-29T04:04:12.169Z,84.75
2019-05-29T04:05:12.158Z,84.65
2019-05-29T04:06:12.148Z,84.61
2019-05-29T04:07:12.146Z,84.81
2019-05-29T04:08:12.130Z,85.23
2019-05-29T04:09:12.116Z,84.47
2019-05-29T04:10:12.105Z,82.16
2019-05-29T04:11:12.094Z,81.20
2019-05-29T04:12:12.083Z,80.89
2019-05-29T04:13:12.088Z,80.79
2019-05-29T04:14:12.070Z,80.33
2019-05-29T04:15:12.061Z,79.51
2019-05-29T04:16:12.040Z,78.89
2019-05-29T04:17:12.030Z,78.96
2019-05-29T04:18:12.024Z,78.55
2019-05-29T04:19:12.033Z,78.82
2019-05-29T04:20:11.996Z,79.91
2019-05-29T04:21:12.089Z,79.88
2019-05-29T04:22:11.978Z,77.31
2019-05-29T04:23:11.972Z,76.07
2019-05-29T04:24:11.954Z,76.42
2019-05-29T04:25:11.955Z,75.70
2019-05-29T04:26:11.932Z,74.87
2019-05-29T04:27:11.920Z,75.08
2019-05-29T04:28:11.910Z,73.71
2019-05-29T04:29:11.904Z,74.12
2019-05-29T04:30:11.888Z,73.91
2019-05-29T04:31:11.895Z,73.88
2019-05-29T04:32:11.865Z,73.68
2019-05-29T04:33:11.862Z,74.26
2019-05-29T04:34:11.847Z,73.64
2019-05-29T04:35:11.834Z,73.85
2019-05-29T04:36:11.824Z,73.61
2019-05-29T04:37:11.827Z,73.27
2019-05-29T04:38:11.804Z,72.34
2019-05-29T04:39:11.789Z,71.49
2019-05-29T04:40:11.778Z,70.87
2019-05-29T04:41:11.768Z,70.36
2019-05-29T04:42:11.762Z,70.53
2019-05-29T04:43:11.760Z,71.15
2019-05-29T04:44:11.736Z,70.29
2019-05-29T04:45:11.724Z,70.50
2019-05-29T04:46:11.714Z,70.09
2019-05-29T04:47:12.444Z,69.65
2019-05-29T04:48:11.692Z,69.42
2019-05-29T04:49:11.694Z,69.72
2019-05-29T04:50:11.678Z,68.80
2019-05-29T04:51:11.675Z,68.57
2019-05-29T04:52:11.650Z,69.07
2019-05-29T04:53:11.639Z,69.07
2019-05-29T04:54:11.752Z,69.76
2019-05-29T04:55:11.631Z,69.32
2019-05-29T04:56:11.606Z,67.89
2019-05-29T04:57:11.595Z,66.63
2019-05-29T04:58:11.583Z,65.31
2019-05-29T04:59:11.572Z,65.81
2019-05-29T05:00:11.561Z,66.09
2019-05-29T05:01:11.566Z,66.19
2019-05-29T05:02:11.547Z,65.78
2019-05-29T05:03:11.529Z,66.19
2019-05-29T05:04:11.520Z,65.55
2019-05-29T05:05:11.510Z,64.94
2019-05-29T05:06:11.521Z,64.94
2019-05-29T05:07:11.503Z,65.95
2019-05-29T05:08:11.483Z,64.73
2019-05-29T05:09:11.517Z,65.34
2019-05-29T05:10:11.452Z,64.50
2019-05-29T05:11:11.454Z,65.01
2019-05-29T05:12:11.430Z,63.76
2019-05-29T05:13:11.438Z,63.04
2019-05-29T05:14:11.410Z,64.17
2019-05-29T05:15:11.402Z,63.04
2019-05-29T05:16:11.387Z,62.84
2019-05-29T05:17:25.177Z,63.42
2019-05-29T05:18:12.378Z,63.62
2019-05-29T05:19:11.355Z,62.51
2019-05-29T05:20:11.345Z,62.98
2019-05-29T05:21:11.333Z,62.27
2019-05-29T05:22:11.323Z,63.97
2019-05-29T05:23:11.312Z,62.96
2019-05-29T05:24:11.312Z,60.69
2019-05-29T05:25:11.290Z,62.32
2019-05-29T05:26:11.278Z,62.32
2019-05-29T05:27:11.269Z,61.40
2019-05-29T05:28:11.256Z,61.30
2019-05-29T05:29:11.246Z,61.17
2019-05-29T05:30:11.245Z,60.56
2019-05-29T05:31:11.233Z,60.33
2019-05-29T05:32:11.214Z,61.04
2019-05-29T05:33:11.203Z,61.65
2019-05-29T05:34:11.192Z,60.63
2019-05-29T05:35:14.366Z,60.10
2019-05-29T05:36:11.181Z,61.59
2019-05-29T05:37:11.159Z,60.47
2019-05-29T05:38:11.148Z,60.68
2019-05-29T05:39:11.137Z,59.97
2019-05-29T05:40:11.132Z,60.37
2019-05-29T05:41:11.190Z,59.46
2019-05-29T05:42:11.117Z,58.78
2019-05-29T05:43:23.169Z,58.04
2019-05-29T05:44:12.082Z,60.07
2019-05-29T05:45:11.073Z,58.72
2019-05-29T05:46:11.098Z,57.81
2019-05-29T05:47:11.050Z,57.37
2019-05-29T05:48:11.053Z,56.26
2019-05-29T05:49:11.029Z,58.29
2019-05-29T05:50:11.020Z,57.88
2019-05-29T05:51:11.013Z,56.05
2019-05-29T05:52:10.998Z,56.57
2019-05-29T05:53:10.987Z,58.39
2019-05-29T05:54:10.989Z,58.59
2019-05-29T05:55:10.967Z,57.24
2019-05-29T05:56:10.956Z,56.54
2019-05-29T05:57:10.945Z,55.40
2019-05-29T05:58:10.934Z,55.83
2019-05-29T05:59:10.924Z,55.70
2019-05-29T06:00:10.933Z,55.70
2019-05-29T06:01:10.901Z,54.56
2019-05-29T06:02:10.890Z,53.75
2019-05-29T06:03:10.879Z,53.78
2019-05-29T06:04:10.869Z,55.50
2019-05-29T06:05:10.858Z,56.08
2019-05-29T06:06:10.865Z,54.86
2019-05-29T06:07:10.838Z,53.63
2019-05-29T06:08:10.837Z,52.72
2019-05-29T06:09:10.817Z,52.97
2019-05-29T06:10:10.806Z,52.46
2019-05-29T06:11:10.793Z,54.00
2019-05-29T06:12:10.813Z,55.15
2019-05-29T06:13:10.771Z,57.96
2019-05-29T06:14:10.763Z,56.13
2019-05-29T06:15:10.751Z,55.35
2019-05-29T06:16:10.744Z,56.13
2019-05-29T06:17:10.755Z,55.63
2019-05-29T06:18:21.033Z,55.83
2019-05-29T06:19:11.708Z,56.51
2019-05-29T06:20:10.698Z,53.78
2019-05-29T06:21:10.701Z,55.85
2019-05-29T06:22:10.676Z,57.34
2019-05-29T06:23:10.669Z,52.76
2019-05-29T06:24:10.668Z,53.30
2019-05-29T06:25:10.727Z,53.98
2019-05-29T06:26:10.635Z,52.34
2019-05-29T06:27:10.625Z,52.46
2019-05-29T06:28:10.616Z,53.34
2019-05-29T06:29:10.608Z,52.14
2019-05-29T06:30:10.602Z,50.69
2019-05-29T06:31:10.580Z,51.67
2019-05-29T06:32:10.583Z,54.77
2019-05-29T06:33:10.560Z,55.35
2019-05-29T06:34:10.548Z,54.03
2019-05-29T06:35:10.536Z,56.26
2019-05-29T06:36:10.547Z,53.63
2019-05-29T06:37:10.515Z,52.79
2019-05-29T06:38:10.505Z,53.78
2019-05-29T06:39:10.499Z,56.15
2019-05-29T06:40:10.485Z,56.23
2019-05-29T06:41:10.476Z,52.16
2019-05-29T06:42:10.472Z,52.01
2019-05-29T06:43:11.973Z,51.37
2019-05-29T06:44:10.441Z,52.46
2019-05-29T06:45:10.444Z,50.52
2019-05-29T06:46:10.418Z,50.32
2019-05-29T06:47:10.414Z,50.42
2019-05-29T06:48:10.412Z,50.12
2019-05-29T06:49:10.398Z,48.62
2019-05-29T06:50:10.376Z,49.33
2019-05-29T06:51:10.368Z,50.14
2019-05-29T06:52:10.355Z,49.71
2019-05-29T06:53:10.344Z,49.51
2019-05-29T06:54:10.342Z,49.53
2019-05-29T06:55:10.324Z,50.09
2019-05-29T06:56:10.328Z,50.57
2019-05-29T06:57:10.301Z,49.76
2019-05-29T06:58:10.289Z,50.14
2019-05-29T06:59:10.288Z,49.53
2019-05-29T07:00:10.280Z,47.59
2019-05-29T07:01:10.257Z,50.32
2019-05-29T07:02:10.247Z,48.37
2019-05-29T07:03:10.237Z,48.25
2019-05-29T07:04:12.264Z,45.54
2019-05-29T07:05:10.214Z,46.70
2019-05-29T07:06:10.230Z,48.46
2019-05-29T07:07:10.193Z,49.45
2019-05-29T07:08:18.927Z,48.14
2019-05-29T07:09:11.171Z,50.57
2019-05-29T07:10:10.163Z,49.21
2019-05-29T07:11:10.152Z,47.59
2019-05-29T07:12:10.155Z,47.99
2019-05-29T07:13:10.129Z,46.28
2019-05-29T07:14:10.126Z,47.31
2019-05-29T07:15:10.107Z,45.99
2019-05-29T07:16:10.097Z,47.49
2019-05-29T07:17:10.104Z,48.98
2019-05-29T07:18:10.090Z,47.92
2019-05-29T07:19:24.786Z,47.40
2019-05-29T07:20:11.052Z,43.26
2019-05-29T07:21:10.043Z,43.48
2019-05-29T07:22:10.033Z,43.60
2019-05-29T07:23:10.023Z,43.83
2019-05-29T07:24:10.024Z,43.65
2019-05-29T07:25:10.007Z,43.37
2019-05-29T07:26:09.990Z,44.80
2019-05-29T07:27:13.374Z,45.71
2019-05-29T07:28:09.971Z,46.62
2019-05-29T07:29:09.958Z,46.50
2019-05-29T07:30:09.969Z,45.99
2019-05-29T07:31:09.936Z,46.60
2019-05-29T07:32:09.925Z,48.19
2019-05-29T07:33:09.915Z,48.25
2019-05-29T07:34:09.904Z,44.51
2019-05-29T07:35:09.895Z,43.89
2019-05-29T07:36:09.893Z,43.91
2019-05-29T07:37:09.879Z,46.43
2019-05-29T07:38:09.866Z,46.51
2019-05-29T07:39:09.860Z,42.38
2019-05-29T07:40:09.841Z,42.68
2019-05-29T07:41:09.830Z,43.59
2019-05-29T07:42:09.827Z,43.48
2019-05-29T07:43:09.807Z,44.05
2019-05-29T07:44:09.800Z,46.01
2019-05-29T07:45:09.786Z,45.91
2019-05-29T07:46:09.776Z,45.59
2019-05-29T07:47:10.093Z,48.50
2019-05-29T07:48:09.765Z,44.34
2019-05-29T07:49:09.745Z,43.63
2019-05-29T07:50:09.733Z,44.01
2019-05-29T07:51:09.725Z,45.12
2019-05-29T07:52:09.711Z,46.01
2019-05-29T07:53:09.701Z,42.88
2019-05-29T07:54:09.710Z,43.32
2019-05-29T07:55:09.947Z,43.37
2019-05-29T07:56:22.259Z,44.70
2019-05-29T07:57:10.658Z,45.99
2019-05-29T07:58:09.648Z,45.10
2019-05-29T07:59:09.638Z,45.81
2019-05-29T08:00:09.639Z,44.90
2019-05-29T08:01:13.725Z,45.41
2019-05-29T08:02:09.604Z,44.58
2019-05-29T08:03:09.597Z,45.89
2019-05-29T08:04:09.588Z,46.68
2019-05-29T08:05:09.573Z,43.43
2019-05-29T08:06:09.573Z,43.38
2019-05-29T08:07:09.551Z,44.29
2019-05-29T08:08:09.541Z,43.74
2019-05-29T08:09:09.529Z,42.01
2019-05-29T08:10:09.521Z,39.90
2019-05-29T08:11:09.508Z,40.52
2019-05-29T08:12:09.507Z,41.73
2019-05-29T08:13:09.486Z,40.22
2019-05-29T08:14:09.476Z,40.91
2019-05-29T08:15:09.469Z,39.70
2019-05-29T08:16:09.454Z,41.61
2019-05-29T08:17:09.444Z,41.41
2019-05-29T08:18:09.444Z,43.40
2019-05-29T08:19:09.432Z,42.18
2019-05-29T08:20:09.418Z,40.36
2019-05-29T08:21:09.402Z,41.85
2019-05-29T08:22:09.393Z,40.14
2019-05-29T08:23:09.383Z,40.12
2019-05-29T08:24:09.381Z,39.62
2019-05-29T08:25:09.360Z,39.22
2019-05-29T08:26:09.354Z,39.01
2019-05-29T08:27:09.342Z,38.23
2019-05-29T08:28:09.330Z,40.24
2019-05-29T08:29:09.320Z,41.25
2019-05-29T08:30:09.317Z,40.34
2019-05-29T08:31:09.298Z,39.84
2019-05-29T08:32:09.287Z,39.86
2019-05-29T08:33:09.275Z,41.39
2019-05-29T08:34:09.266Z,42.30
2019-05-29T08:35:09.274Z,42.72
2019-05-29T08:36:09.257Z,42.01
2019-05-29T08:37:09.232Z,41.35
2019-05-29T08:38:09.224Z,43.87
2019-05-29T08:39:09.211Z,41.25
2019-05-29T08:40:09.201Z,41.85
2019-05-29T08:41:09.192Z,42.07
2019-05-29T08:42:22.515Z,41.39
2019-05-29T08:43:10.171Z,42.55
2019-05-29T08:44:09.160Z,44.92
2019-05-29T08:45:09.152Z,46.14
2019-05-29T08:46:09.137Z,43.79
2019-05-29T08:47:10.845Z,44.21
2019-05-29T08:48:09.127Z,45.03
2019-05-29T08:49:09.107Z,47.63
2019-05-29T08:50:18.090Z,45.41
2019-05-29T08:51:10.084Z,43.34
2019-05-29T08:52:12.176Z,42.41
2019-05-29T08:53:09.064Z,41.91
2019-05-29T08:54:23.474Z,43.59
2019-05-29T08:55:10.041Z,43.59
2019-05-29T08:56:09.032Z,44.79
2019-05-29T08:57:09.027Z,43.97
2019-05-29T08:58:09.012Z,41.55
2019-05-29T08:59:09.007Z,41.53
2019-05-29T09:00:09.008Z,40.20
2019-05-29T09:01:08.977Z,41.51
2019-05-29T09:02:08.982Z,41.69
2019-05-29T09:03:08.960Z,39.28
2019-05-29T09:04:08.947Z,40.26
2019-05-29T09:05:08.935Z,43.88
2019-05-29T09:06:11.470Z,41.77
2019-05-29T09:07:08.914Z,41.65
2019-05-29T09:08:08.904Z,43.87
2019-05-29T09:09:08.893Z,41.63
2019-05-29T09:10:08.882Z,39.52
2019-05-29T09:11:08.880Z,40.42
2019-05-29T09:12:08.875Z,40.73
2019-05-29T09:13:08.850Z,39.50
2019-05-29T09:14:08.842Z,39.40
2019-05-29T09:15:09.489Z,37.21
2019-05-29T09:16:08.819Z,36.84
2019-05-29T09:17:08.807Z,35.45
2019-05-29T09:18:08.810Z,37.18
2019-05-29T09:19:08.787Z,39.19
2019-05-29T09:20:25.416Z,41.11
2019-05-29T09:21:09.770Z,40.10
2019-05-29T09:22:08.754Z,39.98
2019-05-29T09:23:08.743Z,39.36
2019-05-29T09:24:08.744Z,39.15
2019-05-29T09:25:08.722Z,38.53
2019-05-29T09:26:15.753Z,39.14
2019-05-29T09:27:09.700Z,38.90
2019-05-29T09:28:08.699Z,39.70
2019-05-29T09:29:08.680Z,36.79
2019-05-29T09:30:08.681Z,36.58
2019-05-29T09:31:08.679Z,37.81
2019-05-29T09:32:08.648Z,36.70
2019-05-29T09:33:08.639Z,37.23
2019-05-29T09:34:08.627Z,37.41
2019-05-29T09:35:08.617Z,35.82
2019-05-29T09:36:08.617Z,35.65
2019-05-29T09:37:08.595Z,36.67
2019-05-29T09:38:08.584Z,38.18
2019-05-29T09:39:08.574Z,37.78
2019-05-29T09:40:08.563Z,39.29
2019-05-29T09:41:08.554Z,36.98
2019-05-29T09:42:08.552Z,39.09
2019-05-29T09:43:08.532Z,39.70
2019-05-29T09:44:08.521Z,39.50
2019-05-29T09:45:08.510Z,40.18
2019-05-29T09:46:08.503Z,38.27
2019-05-29T09:47:08.489Z,38.27
2019-05-29T09:48:08.509Z,39.68
2019-05-29T09:49:08.467Z,39.98
2019-05-29T09:50:08.457Z,36.64
2019-05-29T09:52:09.433Z,36.64
2019-05-29T09:53:08.425Z,37.54
2019-05-29T09:53:44.985Z,37.45
2019-05-29T09:54:08.491Z,36.49
2019-05-29T09:55:08.402Z,38.32
2019-05-29T09:56:08.399Z,38.62
2019-05-29T09:57:08.384Z,38.62
2019-05-29T09:58:08.371Z,38.32
2019-05-29T09:59:08.362Z,39.31
2019-05-29T10:00:08.361Z,41.51
2019-05-29T10:01:21.848Z,37.98
2019-05-29T10:02:09.536Z,37.76
2019-05-29T10:03:08.319Z,38.67
2019-05-29T10:04:08.310Z,36.66
2019-05-29T10:05:08.298Z,37.26
2019-05-29T10:06:09.516Z,36.96
2019-05-29T10:07:08.277Z,37.16
2019-05-29T10:08:08.265Z,37.27
2019-05-29T10:09:08.254Z,38.48
2019-05-29T10:10:08.244Z,37.98
2019-05-29T10:11:10.666Z,36.47
2019-05-29T10:12:08.235Z,38.89
2019-05-29T10:13:08.212Z,36.98
2019-05-29T10:14:08.205Z,37.88
2019-05-29T10:15:08.191Z,35.14
2019-05-29T10:16:08.181Z,35.06
2019-05-29T10:17:12.565Z,35.38
2019-05-29T10:18:28.222Z,35.90
2019-05-29T10:19:09.148Z,37.53
2019-05-29T10:20:08.141Z,38.93
2019-05-29T10:21:08.135Z,40.34
2019-05-29T10:22:08.117Z,40.42
2019-05-29T10:23:08.107Z,38.40
2019-05-29T10:24:08.108Z,38.50
2019-05-29T10:25:08.088Z,38.48
2019-05-29T10:26:08.076Z,39.70
2019-05-29T10:27:08.065Z,37.36
2019-05-29T10:28:08.176Z,37.36
2019-05-29T10:29:09.510Z,36.66
2019-05-29T10:30:08.043Z,35.46
2019-05-29T10:31:08.022Z,35.78
2019-05-29T10:32:08.014Z,35.10
2019-05-29T10:33:08.001Z,36.93
2019-05-29T10:34:08.007Z,38.44
2019-05-29T10:35:07.979Z,38.95
2019-05-29T10:36:07.984Z,39.94
2019-05-29T10:37:07.971Z,37.41
2019-05-29T10:38:07.952Z,37.29
2019-05-29T10:39:07.936Z,39.01
2019-05-29T10:40:07.927Z,36.99
2019-05-29T10:41:07.914Z,35.38
2019-05-29T10:42:07.914Z,37.41
2019-05-29T10:43:07.897Z,37.93
2019-05-29T10:44:07.884Z,40.05
2019-05-29T10:45:07.872Z,41.56
2019-05-29T10:46:07.882Z,41.06
2019-05-29T10:47:07.853Z,40.44
2019-05-29T10:48:07.863Z,39.31
2019-05-29T10:49:07.831Z,40.80
2019-05-29T10:50:07.923Z,39.39
2019-05-29T10:51:07.812Z,38.89
2019-05-29T10:52:15.513Z,39.29
2019-05-29T10:53:08.799Z,38.39
2019-05-29T10:54:07.779Z,37.76
2019-05-29T10:55:07.766Z,35.48
2019-05-29T10:56:07.758Z,35.92
2019-05-29T10:57:07.752Z,37.65
2019-05-29T10:58:07.738Z,37.46
2019-05-29T10:59:07.745Z,38.28
2019-05-29T11:00:07.712Z,41.10
2019-05-29T11:01:07.700Z,41.81
2019-05-29T11:02:07.692Z,42.60
2019-05-29T11:03:07.680Z,42.19
2019-05-29T11:04:07.677Z,40.03
2019-05-29T11:05:07.670Z,35.30
2019-05-29T11:06:07.647Z,36.81
2019-05-29T11:07:07.637Z,39.73
2019-05-29T11:08:07.625Z,38.42
2019-05-29T11:09:07.615Z,39.83
2019-05-29T11:10:07.606Z,38.60
2019-05-29T11:11:07.616Z,38.91
2019-05-29T11:12:07.582Z,37.09
2019-05-29T11:13:07.571Z,35.78
2019-05-29T11:14:07.560Z,37.19
2019-05-29T11:15:20.853Z,37.21
2019-05-29T11:16:08.548Z,39.11
2019-05-29T11:17:07.536Z,38.91
2019-05-29T11:18:07.521Z,36.89
2019-05-29T11:19:07.509Z,37.80
2019-05-29T11:20:07.495Z,37.68
2019-05-29T11:21:07.484Z,38.71
2019-05-29T11:22:25.233Z,38.50
2019-05-29T11:23:08.463Z,40.72
2019-05-29T11:24:07.453Z,40.32
2019-05-29T11:25:21.761Z,40.82
2019-05-29T11:26:08.428Z,38.99
2019-05-29T11:27:07.419Z,39.59
2019-05-29T11:28:07.420Z,40.20
2019-05-29T11:29:07.396Z,40.30
2019-05-29T11:30:07.386Z,38.57
2019-05-29T11:31:07.374Z,38.27
2019-05-29T11:32:07.363Z,37.98
2019-05-29T11:33:07.352Z,38.67
2019-05-29T11:34:07.356Z,38.89
2019-05-29T11:35:07.336Z,40.08
2019-05-29T11:36:12.934Z,39.37
2019-05-29T11:37:08.308Z,39.36
2019-05-29T11:38:07.303Z,37.14
2019-05-29T11:39:07.286Z,37.87
2019-05-29T11:40:07.287Z,39.65
2019-05-29T11:41:24.986Z,41.57
2019-05-29T11:42:08.251Z,36.13
2019-05-29T11:43:07.243Z,38.05
2019-05-29T11:44:07.245Z,39.37
2019-05-29T11:45:07.223Z,38.87
2019-05-29T11:46:07.226Z,40.70
2019-05-29T11:47:07.197Z,39.21
2019-05-29T11:48:07.203Z,39.67
2019-05-29T11:49:07.175Z,40.30
2019-05-29T11:50:18.780Z,41.81
2019-05-29T11:51:08.164Z,42.21
2019-05-29T11:52:23.247Z,41.41
2019-05-29T11:53:08.145Z,41.83
2019-05-29T11:54:07.122Z,42.94
2019-05-29T11:55:08.120Z,42.64
2019-05-29T11:56:07.105Z,43.32
2019-05-29T11:57:07.103Z,42.72
2019-05-29T11:58:07.079Z,41.41
2019-05-29T11:59:07.073Z,39.70
2019-05-29T12:00:17.751Z,40.53
2019-05-29T12:01:08.045Z,42.17
2019-05-29T12:02:07.036Z,42.37
2019-05-29T12:03:07.035Z,42.58
2019-05-29T12:04:23.121Z,42.37
2019-05-29T12:05:08.009Z,42.58
2019-05-29T12:06:07.018Z,42.07
2019-05-29T12:07:06.981Z,41.36
2019-05-29T12:08:06.972Z,42.46
2019-05-29T12:09:06.972Z,43.75
2019-05-29T12:10:07.412Z,43.12
2019-05-29T12:11:07.327Z,41.41
2019-05-29T12:12:06.933Z,42.09
2019-05-29T12:13:06.923Z,41.56
2019-05-29T12:14:06.907Z,40.36
2019-05-29T12:15:12.993Z,39.65
2019-05-29T12:16:07.883Z,40.56
2019-05-29T12:17:06.885Z,39.75
2019-05-29T12:18:22.669Z,39.45
2019-05-29T12:19:07.851Z,40.64
2019-05-29T12:20:26.369Z,38.93
2019-05-29T12:21:07.846Z,38.34
2019-05-29T12:22:06.825Z,39.57
2019-05-29T12:23:24.151Z,40.17
2019-05-29T12:24:07.795Z,42.40
2019-05-29T12:25:06.789Z,42.27
2019-05-29T12:26:20.109Z,43.87
2019-05-29T12:27:07.818Z,40.94
2019-05-29T12:28:06.754Z,39.61
2019-05-29T12:29:11.464Z,38.89
2019-05-29T12:30:07.733Z,40.10
2019-05-29T12:31:06.759Z,39.88
2019-05-29T12:32:09.609Z,38.27
2019-05-29T12:33:06.719Z,39.56
2019-05-29T12:34:18.801Z,38.35
2019-05-29T12:35:07.678Z,38.64
2019-05-29T12:36:06.674Z,37.63
2019-05-29T12:37:06.719Z,36.72
2019-05-29T12:38:06.647Z,37.23
2019-05-29T12:39:06.655Z,36.50
2019-05-29T12:40:06.631Z,35.60
2019-05-29T12:41:06.616Z,36.80
2019-05-29T12:42:06.602Z,36.70
2019-05-29T12:43:06.593Z,35.60
2019-05-29T12:44:06.581Z,35.60
2019-05-29T12:45:06.602Z,35.51
2019-05-29T12:46:06.560Z,36.44
2019-05-29T12:47:06.634Z,36.76
2019-05-29T12:48:13.081Z,37.06
2019-05-29T12:49:07.529Z,35.97
2019-05-29T12:50:06.516Z,36.77
2019-05-29T12:51:06.520Z,36.57
2019-05-29T12:52:08.184Z,37.58